createdAt,value
2018-04-14T00:00:08.056Z,93.95
2018-04-14T00:02:36.696Z,94.14
2018-04-14T00:05:05.241Z,95.27
2018-04-14T00:07:33.713Z,95.27
2018-04-14T00:10:02.425Z,95.46
2018-04-14T00:12:31.315Z,94.76
2018-04-14T00:14:59.963Z,95.33
2018-04-14T00:17:28.421Z,94.73
2018-04-14T00:19:56.916Z,94.97
2018-04-14T00:22:26.048Z,95.46
2018-04-14T00:27:29.250Z,96.34
2018-04-14T00:29:58.107Z,96.32
2018-04-14T00:32:26.659Z,96.04
2018-04-14T00:34:55.383Z,96.72
2018-04-14T00:37:23.875Z,97.18
2018-04-14T00:39:52.528Z,97.15
2018-04-14T00:42:21.562Z,98.00
2018-04-14T00:44:50.485Z,98.42
2018-04-14T00:47:19.103Z,98.34
2018-04-14T00:49:47.451Z,98.77
2018-04-14T00:52:16.972Z,98.18
2018-04-14T00:54:45.516Z,98.07
2018-04-14T00:57:14.106Z,98.51
2018-04-14T00:59:42.608Z,98.54
2018-04-14T01:02:11.102Z,98.61
2018-04-14T01:04:39.554Z,98.39
2018-04-14T01:07:08.110Z,98.85
2018-04-14T01:09:36.621Z,98.47
2018-04-14T01:12:05.523Z,99.03
2018-04-14T01:14:33.943Z,98.97
2018-04-14T01:17:02.632Z,99.55
2018-04-14T01:19:31.168Z,99.36
2018-04-14T01:21:59.880Z,99.52
2018-04-14T01:24:28.412Z,99.40
2018-04-14T01:26:56.972Z,99.54
2018-04-14T01:29:25.495Z,99.91
2018-04-14T01:31:53.916Z,99.98
2018-04-14T01:34:22.410Z,99.94
2018-04-14T01:36:51.251Z,99.72
2018-04-14T01:39:19.713Z,99.70
2018-04-14T01:41:48.359Z,99.42
2018-04-14T01:44:17.086Z,99.48
2018-04-14T01:46:45.546Z,99.69
2018-04-14T01:49:14.162Z,99.36
2018-04-14T01:51:42.803Z,99.52
2018-04-14T01:54:11.311Z,99.67
2018-04-14T01:56:39.758Z,99.31
2018-04-14T01:59:08.228Z,99.50
2018-04-14T02:01:36.952Z,99.74
2018-04-14T02:04:05.626Z,99.71
2018-04-14T02:06:40.515Z,99.53
2018-04-14T02:09:09.295Z,99.43
2018-04-14T02:11:37.920Z,99.62
2018-04-14T02:14:06.894Z,99.47
2018-04-14T02:16:35.640Z,99.63
2018-04-14T02:19:04.341Z,99.44
2018-04-14T02:21:36.317Z,99.42
2018-04-14T02:24:04.795Z,99.23
2018-04-14T02:26:33.470Z,98.67
2018-04-14T02:29:02.325Z,98.90
2018-04-14T02:31:30.786Z,99.25
2018-04-14T02:35:02.634Z,99.59
2018-04-14T02:37:31.276Z,99.13
2018-04-14T02:39:59.800Z,99.14
2018-04-14T02:42:28.409Z,99.14
2018-04-14T02:44:56.880Z,99.36
2018-04-14T02:47:25.358Z,99.24
2018-04-14T02:49:53.768Z,99.28
2018-04-14T02:52:22.363Z,99.41
2018-04-14T02:54:50.986Z,99.51
2018-04-14T02:57:19.503Z,99.38
2018-04-14T02:59:47.964Z,99.69
2018-04-14T03:02:16.724Z,99.53
2018-04-14T03:04:45.331Z,99.51
2018-04-14T03:07:14.073Z,99.80
2018-04-14T03:09:42.676Z,99.58
2018-04-14T03:12:11.616Z,99.90
2018-04-14T03:14:40.280Z,100.00
2018-04-14T03:17:08.959Z,100.00
2018-04-14T03:19:37.543Z,99.74
2018-04-14T03:23:09.224Z,100.00
2018-04-14T03:25:37.788Z,99.89
2018-04-14T03:28:06.451Z,99.57
2018-04-14T03:30:35.292Z,98.84
2018-04-14T03:33:03.724Z,98.54
2018-04-14T03:35:32.225Z,98.98
2018-04-14T03:38:00.721Z,97.94
2018-04-14T03:40:29.659Z,97.83
2018-04-14T03:42:58.423Z,98.29
2018-04-14T03:45:26.978Z,97.76
2018-04-14T03:47:55.666Z,98.48
2018-04-14T03:50:24.159Z,98.73
2018-04-14T03:52:52.626Z,98.89
2018-04-14T03:55:21.414Z,97.96
2018-04-14T03:57:49.985Z,98.48
2018-04-14T04:03:14.051Z,98.69
2018-04-14T04:05:42.572Z,97.59
2018-04-14T04:08:10.961Z,98.33
2018-04-14T04:10:39.307Z,98.64
2018-04-14T04:13:07.639Z,98.49
2018-04-14T04:15:35.977Z,98.74
2018-04-14T04:18:04.263Z,99.27
2018-04-14T04:20:41.546Z,98.91
2018-04-14T04:25:22.134Z,99.26
2018-04-14T04:27:50.605Z,99.54
2018-04-14T04:30:18.964Z,99.67
2018-04-14T04:32:47.412Z,99.22
2018-04-14T04:35:16.249Z,99.64
2018-04-14T04:37:44.580Z,99.34
2018-04-14T04:40:12.967Z,99.08
2018-04-14T04:42:41.285Z,99.62
2018-04-14T04:45:09.608Z,99.87
2018-04-14T04:47:37.918Z,99.02
2018-04-14T04:50:06.239Z,99.16
2018-04-14T04:52:34.713Z,98.58
2018-04-14T04:55:03.079Z,97.96
2018-04-14T04:57:31.412Z,99.31
2018-04-14T05:00:00.016Z,97.37
2018-04-14T05:02:28.339Z,97.83
2018-04-14T05:04:56.627Z,97.60
2018-04-14T05:07:28.005Z,97.97
2018-04-14T05:09:56.306Z,98.38
2018-04-14T05:12:24.636Z,98.72
2018-04-14T05:14:53.039Z,98.34
2018-04-14T05:17:21.556Z,99.35
2018-04-14T05:19:49.980Z,99.57
2018-04-14T05:22:18.294Z,98.58
2018-04-14T05:24:46.743Z,98.51
2018-04-14T05:27:15.147Z,98.16
2018-04-14T05:29:43.680Z,98.15
2018-04-14T05:32:12.004Z,98.11
2018-04-14T05:34:40.452Z,98.12
2018-04-14T05:37:08.785Z,97.91
2018-04-14T05:39:37.240Z,97.63
2018-04-14T05:42:05.748Z,97.67
2018-04-14T05:44:34.077Z,96.85
2018-04-14T05:47:02.495Z,97.50
2018-04-14T05:49:30.979Z,97.63
2018-04-14T05:51:59.356Z,97.78
2018-04-14T05:54:27.644Z,97.55
2018-04-14T05:56:55.987Z,98.32
2018-04-14T05:59:24.287Z,98.28
2018-04-14T06:01:52.768Z,97.63
2018-04-14T06:04:21.081Z,97.84
2018-04-14T06:06:49.515Z,98.43
2018-04-14T06:09:17.844Z,98.43
2018-04-14T06:11:46.172Z,98.45
2018-04-14T06:14:14.576Z,98.86
2018-04-14T06:16:42.949Z,98.39
2018-04-14T06:19:11.289Z,98.63
2018-04-14T06:21:39.707Z,98.29
2018-04-14T06:24:08.144Z,98.35
2018-04-14T06:26:36.455Z,98.16
2018-04-14T06:29:04.770Z,97.53
2018-04-14T06:31:33.092Z,96.87
2018-04-14T06:34:01.428Z,97.11
2018-04-14T06:36:29.760Z,97.11
2018-04-14T06:38:58.078Z,96.56
2018-04-14T06:41:26.400Z,96.98
2018-04-14T06:43:54.720Z,96.42
2018-04-14T06:46:23.100Z,96.49
2018-04-14T06:48:51.652Z,96.32
2018-04-14T06:51:20.555Z,96.01
2018-04-14T06:53:48.976Z,96.37
2018-04-14T06:56:17.341Z,96.75
2018-04-14T06:58:51.242Z,96.68
2018-04-14T07:01:21.982Z,96.41
2018-04-14T07:03:50.920Z,96.47
2018-04-14T07:06:19.980Z,96.60
2018-04-14T07:08:48.330Z,96.17
2018-04-14T07:11:17.229Z,95.06
2018-04-14T07:13:45.547Z,94.76
2018-04-14T07:16:13.967Z,93.49
2018-04-14T07:18:42.404Z,93.44
2018-04-14T07:21:10.944Z,93.63
2018-04-14T07:23:39.259Z,93.46
2018-04-14T07:26:07.749Z,91.71
2018-04-14T07:28:36.167Z,90.52
2018-04-14T07:31:04.569Z,90.21
2018-04-14T07:33:32.917Z,89.36
2018-04-14T07:36:01.439Z,89.26
2018-04-14T07:38:29.753Z,88.08
2018-04-14T07:40:59.065Z,88.38
2018-04-14T07:43:27.774Z,87.52
2018-04-14T07:45:56.128Z,85.75
2018-04-14T07:48:24.774Z,87.10
2018-04-14T07:50:53.803Z,86.66
2018-04-14T07:53:22.079Z,87.63
2018-04-14T07:55:50.411Z,87.89
2018-04-14T07:58:18.747Z,87.76
2018-04-14T08:00:47.139Z,86.73
2018-04-14T08:03:15.819Z,86.88
2018-04-14T08:05:44.141Z,87.09
2018-04-14T08:08:12.666Z,87.12
2018-04-14T08:10:41.056Z,86.95
2018-04-14T08:13:09.488Z,86.55
2018-04-14T08:15:37.936Z,85.66
2018-04-14T08:18:06.268Z,85.63
2018-04-14T08:20:34.575Z,86.40
2018-04-14T08:23:02.875Z,85.16
2018-04-14T08:25:31.992Z,85.64
2018-04-14T08:28:00.384Z,83.81
2018-04-14T08:30:28.777Z,84.03
2018-04-14T08:32:57.192Z,83.59
2018-04-14T08:35:25.697Z,84.50
2018-04-14T08:37:54.072Z,81.50
2018-04-14T08:40:22.392Z,80.29
2018-04-14T08:42:50.792Z,79.37
2018-04-14T08:45:19.456Z,79.11
2018-04-14T08:47:47.933Z,78.49
2018-04-14T08:50:16.447Z,79.65
2018-04-14T08:52:44.737Z,81.15
2018-04-14T08:55:13.388Z,82.03
2018-04-14T08:57:41.697Z,81.80
2018-04-14T09:00:10.087Z,82.52
2018-04-14T09:02:38.431Z,82.12
2018-04-14T09:05:06.793Z,81.82
2018-04-14T09:07:35.101Z,81.73
2018-04-14T09:10:03.467Z,82.56
2018-04-14T09:12:31.832Z,81.74
2018-04-14T09:15:03.315Z,81.28
2018-04-14T09:17:32.217Z,80.27
2018-04-14T09:20:00.779Z,80.56
2018-04-14T09:22:29.199Z,80.06
2018-04-14T09:24:57.704Z,79.78
2018-04-14T09:27:26.022Z,77.08
2018-04-14T09:29:54.296Z,75.89
2018-04-14T09:32:22.673Z,74.54
2018-04-14T09:34:54.548Z,73.27
2018-04-14T09:37:25.740Z,72.27
2018-04-14T09:39:55.127Z,73.67
2018-04-14T09:42:26.500Z,72.08
2018-04-14T09:44:54.794Z,71.12
2018-04-14T09:47:23.218Z,70.36
2018-04-14T09:49:51.833Z,70.09
2018-04-14T09:52:20.167Z,70.60
2018-04-14T09:54:49.158Z,71.65
2018-04-14T09:57:17.540Z,70.79
2018-04-14T09:59:45.827Z,68.59
2018-04-14T10:02:14.211Z,67.62
2018-04-14T10:04:42.521Z,68.13
2018-04-14T10:07:11.954Z,67.55
2018-04-14T10:09:40.297Z,66.26
2018-04-14T10:12:08.615Z,68.90
2018-04-14T10:14:36.978Z,65.93
2018-04-14T10:17:05.474Z,64.26
2018-04-14T10:19:34.859Z,64.21
2018-04-14T10:22:03.332Z,64.49
2018-04-14T10:24:31.662Z,62.99
2018-04-14T10:27:00.067Z,63.09
2018-04-14T10:29:28.405Z,63.05
2018-04-14T10:31:56.729Z,63.71
2018-04-14T10:34:25.771Z,64.65
2018-04-14T10:36:54.444Z,63.68
2018-04-14T10:39:23.734Z,62.21
2018-04-14T10:41:52.641Z,62.43
2018-04-14T10:44:21.005Z,62.31
2018-04-14T10:46:49.339Z,62.83
2018-04-14T10:49:17.832Z,60.93
2018-04-14T10:51:46.607Z,59.52
2018-04-14T10:54:16.776Z,60.97
2018-04-14T10:56:45.235Z,59.98
2018-04-14T10:59:13.537Z,57.82
2018-04-14T11:01:42.027Z,58.43
2018-04-14T11:04:10.327Z,56.97
2018-04-14T11:06:38.977Z,57.19
2018-04-14T11:09:07.512Z,58.18
2018-04-14T11:11:35.863Z,58.57
2018-04-14T11:14:04.207Z,60.18
2018-04-14T11:16:32.532Z,60.43
2018-04-14T11:19:00.864Z,60.91
2018-04-14T11:21:29.336Z,60.84
2018-04-14T11:23:57.740Z,59.32
2018-04-14T11:26:26.175Z,59.72
2018-04-14T11:28:54.461Z,59.74
2018-04-14T11:31:22.896Z,58.22
2018-04-14T11:33:51.179Z,59.85
2018-04-14T11:36:19.599Z,60.92
2018-04-14T11:38:48.179Z,61.54
2018-04-14T11:41:16.545Z,61.31
2018-04-14T11:43:44.888Z,62.07
2018-04-14T11:46:13.268Z,63.75
2018-04-14T11:48:41.779Z,64.25
2018-04-14T11:51:10.167Z,65.19
2018-04-14T11:53:38.565Z,64.41
2018-04-14T11:56:06.931Z,66.36
2018-04-14T11:58:35.307Z,68.67
2018-04-14T12:01:03.640Z,72.38
2018-04-14T12:03:32.080Z,76.09
2018-04-14T12:06:00.509Z,79.69
2018-04-14T12:08:29.132Z,81.77
2018-04-14T12:10:57.653Z,83.34
2018-04-14T12:13:26.251Z,86.13
2018-04-14T12:15:54.694Z,88.57
2018-04-14T12:18:23.182Z,90.07
2018-04-14T12:20:51.643Z,89.65
2018-04-14T12:23:20.323Z,90.52
2018-04-14T12:25:48.631Z,90.36
2018-04-14T12:28:16.941Z,89.17
2018-04-14T12:30:45.296Z,88.78
2018-04-14T12:33:13.843Z,88.53
2018-04-14T12:35:42.363Z,87.10
2018-04-14T12:38:10.807Z,87.73
2018-04-14T12:40:39.195Z,90.61
2018-04-14T12:43:07.616Z,90.93
2018-04-14T12:45:35.924Z,92.18
2018-04-14T12:48:04.296Z,90.10
2018-04-14T12:50:32.608Z,89.27
2018-04-14T12:53:01.097Z,85.23
2018-04-14T12:55:29.511Z,83.83
2018-04-14T12:57:57.860Z,87.43
2018-04-14T13:00:26.344Z,86.70
2018-04-14T13:02:54.764Z,84.92
2018-04-14T13:05:23.166Z,87.16
2018-04-14T13:07:51.535Z,82.78
2018-04-14T13:10:19.914Z,81.02
2018-04-14T13:12:48.553Z,81.70
2018-04-14T13:15:17.004Z,81.73
2018-04-14T13:17:45.560Z,77.98
2018-04-14T13:20:13.881Z,63.72
2018-04-14T13:22:42.183Z,61.46
2018-04-14T13:25:10.573Z,56.17
2018-04-14T13:27:38.898Z,60.68
2018-04-14T13:30:07.447Z,54.96
2018-04-14T13:32:35.761Z,52.29
2018-04-14T13:35:04.110Z,52.45
2018-04-14T13:37:32.534Z,49.79
2018-04-14T13:40:01.052Z,49.92
2018-04-14T13:42:29.460Z,47.01
2018-04-14T13:44:57.803Z,45.83
2018-04-14T13:47:26.210Z,48.42
2018-04-14T13:49:54.531Z,47.10
2018-04-14T13:52:22.894Z,48.49
2018-04-14T13:54:51.524Z,46.44
2018-04-14T13:57:19.995Z,47.80
2018-04-14T13:59:48.358Z,46.83
2018-04-14T14:02:16.729Z,43.56
2018-04-14T14:04:45.744Z,41.67
2018-04-14T14:07:14.117Z,43.82
2018-04-14T14:09:42.407Z,45.05
2018-04-14T14:12:10.763Z,43.26
2018-04-14T14:14:39.052Z,45.39
2018-04-14T14:17:07.598Z,44.90
2018-04-14T14:19:36.078Z,43.49
2018-04-14T14:22:04.620Z,42.81
2018-04-14T14:24:32.915Z,47.23
2018-04-14T14:27:01.312Z,53.85
2018-04-14T14:29:29.709Z,56.07
2018-04-14T14:31:58.076Z,55.43
2018-04-14T14:34:26.356Z,57.07
2018-04-14T14:36:54.822Z,58.56
2018-04-14T14:39:23.112Z,56.51
2018-04-14T14:41:51.751Z,58.43
2018-04-14T14:44:20.264Z,62.06
2018-04-14T14:46:48.757Z,60.37
2018-04-14T14:49:17.111Z,60.93
2018-04-14T14:51:45.739Z,60.54
2018-04-14T14:54:15.968Z,62.16
2018-04-14T14:56:44.468Z,60.08
2018-04-14T14:59:12.886Z,58.38
2018-04-14T15:01:42.492Z,58.85
2018-04-14T15:04:11.200Z,57.90
2018-04-14T15:06:40.125Z,57.96
2018-04-14T15:09:08.540Z,59.27
2018-04-14T15:11:36.895Z,58.61
2018-04-14T15:14:05.227Z,58.37
2018-04-14T15:16:33.620Z,59.67
2018-04-14T15:19:01.906Z,57.74
2018-04-14T15:21:30.351Z,60.36
2018-04-14T15:23:58.805Z,58.63
2018-04-14T15:26:27.149Z,59.68
2018-04-14T15:28:55.443Z,57.32
2018-04-14T15:31:23.908Z,57.61
2018-04-14T15:33:52.307Z,60.67
2018-04-14T15:36:21.716Z,60.21
2018-04-14T15:38:50.202Z,61.77
2018-04-14T15:41:18.523Z,59.54
2018-04-14T15:43:46.846Z,59.17
2018-04-14T15:46:15.199Z,58.56
2018-04-14T15:48:44.766Z,59.34
2018-04-14T15:51:14.384Z,59.67
2018-04-14T15:53:43.560Z,62.25
2018-04-14T15:56:12.366Z,59.62
2018-04-14T15:58:40.663Z,58.29
2018-04-14T16:01:08.980Z,58.49
2018-04-14T16:03:44.723Z,57.17
2018-04-14T16:06:07.083Z,56.80
2018-04-14T16:08:35.400Z,59.64
2018-04-14T16:11:03.872Z,58.05
2018-04-14T16:13:32.323Z,57.49
2018-04-14T16:16:00.916Z,58.18
2018-04-14T16:18:29.276Z,57.08
2018-04-14T16:21:04.267Z,60.84
2018-04-14T16:23:32.597Z,57.59
2018-04-14T16:26:01.090Z,59.42
2018-04-14T16:28:29.915Z,60.26
2018-04-14T16:30:58.231Z,62.19
2018-04-14T16:33:26.563Z,60.25
2018-04-14T16:35:54.897Z,63.33
2018-04-14T16:38:23.313Z,60.19
2018-04-14T16:40:51.656Z,61.89
2018-04-14T16:43:20.048Z,61.49
2018-04-14T16:45:48.412Z,58.91
2018-04-14T16:48:16.789Z,59.85
2018-04-14T16:50:45.248Z,60.09
2018-04-14T16:53:13.576Z,62.33
2018-04-14T16:55:42.068Z,61.79
2018-04-14T16:58:10.355Z,59.79
2018-04-14T17:00:38.827Z,59.95
2018-04-14T17:03:07.400Z,62.62
2018-04-14T17:05:35.843Z,65.88
2018-04-14T17:08:04.227Z,60.31
2018-04-14T17:10:32.591Z,64.43
2018-04-14T17:13:00.879Z,65.75
2018-04-14T17:15:29.201Z,63.66
2018-04-14T17:17:57.487Z,62.99
2018-04-14T17:20:25.891Z,66.98
2018-04-14T17:22:54.177Z,66.87
2018-04-14T17:25:22.536Z,62.99
2018-04-14T17:27:51.164Z,64.25
2018-04-14T17:30:19.483Z,68.56
2018-04-14T17:32:47.821Z,70.55
2018-04-14T17:35:16.156Z,73.81
2018-04-14T17:37:44.451Z,69.48
2018-04-14T17:40:12.843Z,76.52
2018-04-14T17:42:41.335Z,75.79
2018-04-14T17:45:09.668Z,74.91
2018-04-14T17:47:38.015Z,76.16
2018-04-14T17:50:06.392Z,78.18
2018-04-14T17:52:34.939Z,83.32
2018-04-14T17:55:05.091Z,85.24
2018-04-14T17:57:33.467Z,85.91
2018-04-14T18:00:01.767Z,85.35
2018-04-14T18:02:30.121Z,79.56
2018-04-14T18:05:04.083Z,80.87
2018-04-14T18:07:33.048Z,77.64
2018-04-14T18:10:01.315Z,83.61
2018-04-14T18:12:29.680Z,84.29
2018-04-14T18:14:57.971Z,82.42
2018-04-14T18:17:26.623Z,82.88
2018-04-14T18:19:54.915Z,82.05
2018-04-14T18:22:24.433Z,83.19
2018-04-14T18:24:52.823Z,85.48
2018-04-14T18:27:21.160Z,85.19
2018-04-14T18:29:49.447Z,87.11
2018-04-14T18:32:17.781Z,88.36
2018-04-14T18:34:46.208Z,87.52
2018-04-14T18:37:14.903Z,85.76
2018-04-14T18:39:44.250Z,86.28
2018-04-14T18:42:12.923Z,87.42
2018-04-14T18:44:41.267Z,89.89
2018-04-14T18:47:10.493Z,89.74
2018-04-14T18:49:39.032Z,90.01
2018-04-14T18:52:08.267Z,89.22
2018-04-14T18:54:36.738Z,89.87
2018-04-14T18:57:05.113Z,91.16
2018-04-14T18:59:33.431Z,92.30
2018-04-14T19:02:01.815Z,92.65
2018-04-14T19:04:30.112Z,91.67
2018-04-14T19:06:58.520Z,91.78
2018-04-14T19:09:26.991Z,90.19
2018-04-14T19:11:55.355Z,89.38
2018-04-14T19:14:23.716Z,89.85
2018-04-14T19:16:52.230Z,90.70
2018-04-14T19:19:20.723Z,90.55
2018-04-14T19:21:49.084Z,90.51
2018-04-14T19:24:17.448Z,91.00
2018-04-14T19:26:45.973Z,91.40
2018-04-14T19:29:14.340Z,92.88
2018-04-14T19:31:42.689Z,92.20
2018-04-14T19:34:10.978Z,92.60
2018-04-14T19:36:39.347Z,93.08
2018-04-14T19:39:07.628Z,94.19
2018-04-14T19:41:36.032Z,94.07
2018-04-14T19:44:04.346Z,94.33
2018-04-14T19:46:32.959Z,94.06
2018-04-14T19:49:01.267Z,93.38
2018-04-14T19:51:29.642Z,92.66
2018-04-14T19:53:59.896Z,92.36
2018-04-14T19:56:30.348Z,93.41
2018-04-14T19:58:58.889Z,95.06
2018-04-14T20:01:27.340Z,94.31
2018-04-14T20:03:55.787Z,93.95
2018-04-14T20:06:24.235Z,94.82
2018-04-14T20:08:52.559Z,94.63
2018-04-14T20:11:21.999Z,93.45
2018-04-14T20:13:50.339Z,92.91
2018-04-14T20:16:18.839Z,93.64
2018-04-14T20:18:47.339Z,93.92
2018-04-14T20:21:15.707Z,95.14
2018-04-14T20:23:44.406Z,95.27
2018-04-14T20:26:12.892Z,95.10
2018-04-14T20:28:41.303Z,94.86
2018-04-14T20:31:09.733Z,95.12
2018-04-14T20:33:38.031Z,95.03
2018-04-14T20:36:06.425Z,95.11
2018-04-14T20:38:34.773Z,96.10
2018-04-14T20:41:03.125Z,95.45
2018-04-14T20:43:31.979Z,95.49
2018-04-14T20:46:00.308Z,95.96
2018-04-14T20:48:28.663Z,95.69
2018-04-14T20:50:57.006Z,95.72
2018-04-14T20:53:25.369Z,96.32
2018-04-14T20:55:53.784Z,96.69
2018-04-14T20:58:22.160Z,97.72
2018-04-14T21:00:50.487Z,97.64
2018-04-14T21:03:18.825Z,97.57
2018-04-14T21:05:47.355Z,97.88
2018-04-14T21:08:15.703Z,98.14
2018-04-14T21:10:44.114Z,97.65
2018-04-14T21:13:12.502Z,97.33
2018-04-14T21:15:40.851Z,97.74
2018-04-14T21:18:09.195Z,97.93
2018-04-14T21:20:37.531Z,97.57
2018-04-14T21:23:05.919Z,97.43
2018-04-14T21:25:35.817Z,97.40
2018-04-14T21:28:06.449Z,97.23
2018-04-14T21:30:37.420Z,97.83
2018-04-14T21:33:05.931Z,98.62
2018-04-14T21:35:35.469Z,97.69
2018-04-14T21:38:04.536Z,98.33
2018-04-14T21:40:32.849Z,98.12
2018-04-14T21:43:01.505Z,97.81
2018-04-14T21:45:30.183Z,98.21
2018-04-14T21:48:00.503Z,98.02
2018-04-14T21:50:29.287Z,98.34
2018-04-14T21:53:00.788Z,98.73
2018-04-14T21:55:31.212Z,98.31
2018-04-14T21:57:59.880Z,99.36
2018-04-14T22:00:28.331Z,99.54
2018-04-14T22:02:57.398Z,99.18
2018-04-14T22:05:26.328Z,99.13
2018-04-14T22:07:54.690Z,99.73
2018-04-14T22:10:26.069Z,99.93
2018-04-14T22:12:57.724Z,99.42
2018-04-14T22:15:26.171Z,99.25
2018-04-14T22:17:54.660Z,98.34
2018-04-14T22:20:23.041Z,98.40
2018-04-14T22:22:51.534Z,98.29
2018-04-14T22:25:19.950Z,99.34
2018-04-14T22:27:48.330Z,99.89
2018-04-14T22:30:16.832Z,100.00
2018-04-14T22:32:45.242Z,99.91
2018-04-14T22:35:13.649Z,98.83
2018-04-14T22:37:42.066Z,98.42
2018-04-14T22:40:10.416Z,99.03
2018-04-14T22:42:38.785Z,100.00
2018-04-14T22:45:07.192Z,100.00
2018-04-14T22:47:35.540Z,99.62
2018-04-14T22:50:03.876Z,99.93
2018-04-14T22:52:32.185Z,100.00
2018-04-14T22:55:00.495Z,99.81
2018-04-14T22:57:59.964Z,99.81
2018-04-14T23:00:28.636Z,100.00
2018-04-14T23:02:57.226Z,100.00
2018-04-14T23:05:25.588Z,99.63
2018-04-14T23:07:53.941Z,99.62
2018-04-14T23:10:22.572Z,99.78
2018-04-14T23:12:50.998Z,100.00
2018-04-14T23:15:19.368Z,99.35
2018-04-14T23:17:47.669Z,99.48
2018-04-14T23:20:16.296Z,99.09
2018-04-14T23:22:44.588Z,99.54
2018-04-14T23:25:13.007Z,99.99
2018-04-14T23:27:41.380Z,100.00
2018-04-14T23:30:10.125Z,100.00
2018-04-14T23:32:38.503Z,100.00
2018-04-14T23:35:06.920Z,100.00
2018-04-14T23:37:35.342Z,100.00
2018-04-14T23:40:03.892Z,100.00
2018-04-14T23:42:32.287Z,100.00
2018-04-14T23:45:00.632Z,100.00
2018-04-14T23:47:29.356Z,99.92
2018-04-14T23:49:57.691Z,100.00
2018-04-14T23:52:26.472Z,100.00
2018-04-14T23:54:54.871Z,100.00
2018-04-14T23:57:23.448Z,99.61
2018-04-14T23:59:51.805Z,99.49
